sensor_id;sensor_type;location;lat;lon;timestamp;P1;durP1;ratioP1;P2;durP2;ratioP2
47483;SDS011;54076;50.322;18.650;2023-05-23T00:03:32;11.10;;;6.20;;
47483;SDS011;54076;50.322;18.650;2023-05-23T00:08:33;13.30;;;5.90;;
47483;SDS011;54076;50.322;18.650;2023-05-23T00:13:34;9.70;;;5.50;;
47483;SDS011;54076;50.322;18.650;2023-05-23T00:18:36;11.90;;;5.70;;
47483;SDS011;54076;50.322;18.650;2023-05-23T00:23:38;12.00;;;5.50;;
47483;SDS011;54076;50.322;18.650;2023-05-23T00:28:41;14.30;;;5.80;;
47483;SDS011;54076;50.322;18.650;2023-05-23T00:33:42;12.40;;;6.10;;
47483;SDS011;54076;50.322;18.650;2023-05-23T00:38:43;12.60;;;6.10;;
47483;SDS011;54076;50.322;18.650;2023-05-23T00:43:47;11.90;;;5.80;;
47483;SDS011;54076;50.322;18.650;2023-05-23T00:48:48;15.30;;;6.10;;
47483;SDS011;54076;50.322;18.650;2023-05-23T00:53:49;18.50;;;6.40;;
47483;SDS011;54076;50.322;18.650;2023-05-23T00:58:50;14.80;;;6.40;;
47483;SDS011;54076;50.322;18.650;2023-05-23T01:03:52;12.90;;;6.70;;
47483;SDS011;54076;50.322;18.650;2023-05-23T01:08:53;11.80;;;6.70;;
47483;SDS011;54076;50.322;18.650;2023-05-23T01:14:00;10.80;;;5.80;;
47483;SDS011;54076;50.322;18.650;2023-05-23T01:19:57;13.50;;;6.90;;
47483;SDS011;54076;50.322;18.650;2023-05-23T01:25:21;13.00;;;6.50;;
47483;SDS011;54076;50.322;18.650;2023-05-23T01:30:34;13.00;;;6.20;;
47483;SDS011;54076;50.322;18.650;2023-05-23T01:35:39;11.60;;;6.20;;
47483;SDS011;54076;50.322;18.650;2023-05-23T01:40:43;15.90;;;6.40;;
47483;SDS011;54076;50.322;18.650;2023-05-23T01:45:44;12.60;;;6.50;;
47483;SDS011;54076;50.322;18.650;2023-05-23T01:50:45;13.60;;;6.40;;
47483;SDS011;54076;50.322;18.650;2023-05-23T01:55:46;15.20;;;6.80;;
47483;SDS011;54076;50.322;18.650;2023-05-23T02:00:48;14.60;;;6.60;;
47483;SDS011;54076;50.322;18.650;2023-05-23T02:05:49;13.10;;;6.10;;
47483;SDS011;54076;50.322;18.650;2023-05-23T02:10:50;13.80;;;6.80;;
47483;SDS011;54076;50.322;18.650;2023-05-23T02:15:51;13.30;;;6.30;;
47483;SDS011;54076;50.322;18.650;2023-05-23T02:20:52;14.50;;;6.70;;
47483;SDS011;54076;50.322;18.650;2023-05-23T02:25:53;15.00;;;6.70;;
47483;SDS011;54076;50.322;18.650;2023-05-23T02:30:54;16.40;;;7.20;;
47483;SDS011;54076;50.322;18.650;2023-05-23T02:35:55;12.90;;;6.70;;
47483;SDS011;54076;50.322;18.650;2023-05-23T02:47:00;15.30;;;7.00;;
47483;SDS011;54076;50.322;18.650;2023-05-23T02:52:01;14.30;;;7.20;;
47483;SDS011;54076;50.322;18.650;2023-05-23T02:57:02;16.20;;;6.90;;
47483;SDS011;54076;50.322;18.650;2023-05-23T03:02:04;15.90;;;7.00;;
47483;SDS011;54076;50.322;18.650;2023-05-23T03:07:05;12.40;;;6.70;;
47483;SDS011;54076;50.322;18.650;2023-05-23T03:12:06;14.00;;;6.60;;
47483;SDS011;54076;50.322;18.650;2023-05-23T03:29:38;14.40;;;6.50;;
47483;SDS011;54076;50.322;18.650;2023-05-23T03:34:39;12.60;;;6.50;;
47483;SDS011;54076;50.322;18.650;2023-05-23T03:39:40;18.90;;;6.70;;
47483;SDS011;54076;50.322;18.650;2023-05-23T03:44:41;14.00;;;6.30;;
47483;SDS011;54076;50.322;18.650;2023-05-23T03:49:42;16.00;;;6.40;;
47483;SDS011;54076;50.322;18.650;2023-05-23T03:54:44;12.60;;;6.50;;
47483;SDS011;54076;50.322;18.650;2023-05-23T03:59:46;18.50;;;7.40;;
47483;SDS011;54076;50.322;18.650;2023-05-23T04:04:47;13.50;;;7.10;;
47483;SDS011;54076;50.322;18.650;2023-05-23T04:09:48;15.10;;;7.00;;
47483;SDS011;54076;50.322;18.650;2023-05-23T04:14:49;19.30;;;7.80;;
47483;SDS011;54076;50.322;18.650;2023-05-23T04:19:50;15.60;;;7.70;;
47483;SDS011;54076;50.322;18.650;2023-05-23T04:24:51;19.20;;;8.30;;
47483;SDS011;54076;50.322;18.650;2023-05-23T04:29:52;13.30;;;7.30;;
47483;SDS011;54076;50.322;18.650;2023-05-23T04:34:53;16.60;;;7.10;;
47483;SDS011;54076;50.322;18.650;2023-05-23T04:39:56;17.10;;;8.00;;
47483;SDS011;54076;50.322;18.650;2023-05-23T04:44:58;15.40;;;7.70;;
47483;SDS011;54076;50.322;18.650;2023-05-23T04:50:01;16.90;;;8.10;;
47483;SDS011;54076;50.322;18.650;2023-05-23T04:55:04;16.70;;;8.70;;
47483;SDS011;54076;50.322;18.650;2023-05-23T05:00:06;16.50;;;8.30;;
47483;SDS011;54076;50.322;18.650;2023-05-23T05:05:09;21.90;;;8.00;;
47483;SDS011;54076;50.322;18.650;2023-05-23T05:10:10;18.20;;;8.20;;
47483;SDS011;54076;50.322;18.650;2023-05-23T05:15:18;22.00;;;8.60;;
47483;SDS011;54076;50.322;18.650;2023-05-23T05:20:19;16.50;;;8.10;;
47483;SDS011;54076;50.322;18.650;2023-05-23T05:25:21;15.70;;;7.70;;
47483;SDS011;54076;50.322;18.650;2023-05-23T05:30:22;15.40;;;7.60;;
47483;SDS011;54076;50.322;18.650;2023-05-23T05:35:23;14.30;;;7.50;;
47483;SDS011;54076;50.322;18.650;2023-05-23T05:40:25;16.00;;;7.90;;
47483;SDS011;54076;50.322;18.650;2023-05-23T05:45:26;20.90;;;9.10;;
47483;SDS011;54076;50.322;18.650;2023-05-23T05:50:27;14.70;;;8.50;;
47483;SDS011;54076;50.322;18.650;2023-05-23T05:55:28;14.40;;;7.20;;
47483;SDS011;54076;50.322;18.650;2023-05-23T06:00:29;14.00;;;7.90;;
47483;SDS011;54076;50.322;18.650;2023-05-23T06:05:30;19.10;;;8.60;;
47483;SDS011;54076;50.322;18.650;2023-05-23T06:10:31;20.50;;;9.10;;
47483;SDS011;54076;50.322;18.650;2023-05-23T06:15:32;17.10;;;9.00;;
47483;SDS011;54076;50.322;18.650;2023-05-23T06:20:33;18.00;;;8.70;;
47483;SDS011;54076;50.322;18.650;2023-05-23T06:25:34;21.30;;;9.00;;
47483;SDS011;54076;50.322;18.650;2023-05-23T06:30:35;17.30;;;9.40;;
47483;SDS011;54076;50.322;18.650;2023-05-23T06:35:38;23.00;;;9.50;;
47483;SDS011;54076;50.322;18.650;2023-05-23T06:40:39;17.90;;;9.50;;
47483;SDS011;54076;50.322;18.650;2023-05-23T06:45:40;26.30;;;9.90;;
47483;SDS011;54076;50.322;18.650;2023-05-23T06:50:41;19.80;;;9.60;;
47483;SDS011;54076;50.322;18.650;2023-05-23T06:55:42;21.00;;;10.20;;
47483;SDS011;54076;50.322;18.650;2023-05-23T07:00:43;20.80;;;9.40;;
47483;SDS011;54076;50.322;18.650;2023-05-23T07:05:44;17.10;;;8.60;;
47483;SDS011;54076;50.322;18.650;2023-05-23T07:10:46;15.70;;;8.70;;
47483;SDS011;54076;50.322;18.650;2023-05-23T07:15:47;26.00;;;11.50;;
47483;SDS011;54076;50.322;18.650;2023-05-23T07:20:48;22.10;;;8.80;;
47483;SDS011;54076;50.322;18.650;2023-05-23T07:25:49;13.80;;;7.90;;
47483;SDS011;54076;50.322;18.650;2023-05-23T07:30:50;15.80;;;7.70;;
47483;SDS011;54076;50.322;18.650;2023-05-23T07:35:51;17.80;;;8.70;;
47483;SDS011;54076;50.322;18.650;2023-05-23T07:40:52;20.70;;;9.20;;
47483;SDS011;54076;50.322;18.650;2023-05-23T07:45:53;20.60;;;9.10;;
47483;SDS011;54076;50.322;18.650;2023-05-23T07:50:54;16.60;;;7.50;;
47483;SDS011;54076;50.322;18.650;2023-05-23T07:55:55;15.00;;;7.10;;
47483;SDS011;54076;50.322;18.650;2023-05-23T08:00:56;14.30;;;6.90;;
47483;SDS011;54076;50.322;18.650;2023-05-23T08:05:57;15.50;;;7.10;;
47483;SDS011;54076;50.322;18.650;2023-05-23T08:10:58;15.00;;;7.30;;
47483;SDS011;54076;50.322;18.650;2023-05-23T08:15:59;15.80;;;7.10;;
47483;SDS011;54076;50.322;18.650;2023-05-23T08:21:00;15.40;;;7.20;;
47483;SDS011;54076;50.322;18.650;2023-05-23T08:26:02;13.90;;;7.40;;
47483;SDS011;54076;50.322;18.650;2023-05-23T08:31:03;16.50;;;7.90;;
47483;SDS011;54076;50.322;18.650;2023-05-23T08:36:04;12.10;;;7.40;;
47483;SDS011;54076;50.322;18.650;2023-05-23T08:41:05;12.40;;;5.90;;
47483;SDS011;54076;50.322;18.650;2023-05-23T08:46:15;19.30;;;6.60;;
47483;SDS011;54076;50.322;18.650;2023-05-23T08:51:17;10.20;;;5.70;;
47483;SDS011;54076;50.322;18.650;2023-05-23T08:56:20;15.20;;;5.70;;
47483;SDS011;54076;50.322;18.650;2023-05-23T09:01:21;10.30;;;5.50;;
47483;SDS011;54076;50.322;18.650;2023-05-23T09:06:23;10.60;;;5.90;;
47483;SDS011;54076;50.322;18.650;2023-05-23T09:11:24;13.90;;;6.20;;
47483;SDS011;54076;50.322;18.650;2023-05-23T09:16:32;11.70;;;6.30;;
47483;SDS011;54076;50.322;18.650;2023-05-23T09:21:34;9.00;;;4.60;;
47483;SDS011;54076;50.322;18.650;2023-05-23T09:26:36;10.30;;;4.90;;
47483;SDS011;54076;50.322;18.650;2023-05-23T09:31:37;9.10;;;4.80;;
47483;SDS011;54076;50.322;18.650;2023-05-23T09:36:39;14.80;;;6.00;;
47483;SDS011;54076;50.322;18.650;2023-05-23T09:41:43;13.10;;;5.50;;
47483;SDS011;54076;50.322;18.650;2023-05-23T09:46:50;14.80;;;6.20;;
47483;SDS011;54076;50.322;18.650;2023-05-23T09:51:57;10.90;;;5.60;;
47483;SDS011;54076;50.322;18.650;2023-05-23T09:56:59;16.80;;;5.70;;
47483;SDS011;54076;50.322;18.650;2023-05-23T10:02:02;9.80;;;4.90;;
47483;SDS011;54076;50.322;18.650;2023-05-23T10:07:13;11.30;;;5.10;;
47483;SDS011;54076;50.322;18.650;2023-05-23T10:12:41;11.50;;;5.20;;
47483;SDS011;54076;50.322;18.650;2023-05-23T10:23:07;15.90;;;5.10;;
47483;SDS011;54076;50.322;18.650;2023-05-23T10:28:08;10.80;;;4.30;;
47483;SDS011;54076;50.322;18.650;2023-05-23T10:33:11;10.00;;;4.80;;
47483;SDS011;54076;50.322;18.650;2023-05-23T10:43:50;9.00;;;4.30;;
47483;SDS011;54076;50.322;18.650;2023-05-23T10:48:55;8.70;;;4.10;;
47483;SDS011;54076;50.322;18.650;2023-05-23T10:53:57;9.10;;;4.60;;
47483;SDS011;54076;50.322;18.650;2023-05-23T10:58:58;9.70;;;4.50;;
47483;SDS011;54076;50.322;18.650;2023-05-23T11:04:03;22.50;;;5.30;;
47483;SDS011;54076;50.322;18.650;2023-05-23T11:09:13;9.80;;;4.60;;
47483;SDS011;54076;50.322;18.650;2023-05-23T11:14:19;8.80;;;4.70;;
47483;SDS011;54076;50.322;18.650;2023-05-23T11:19:34;8.40;;;4.50;;
47483;SDS011;54076;50.322;18.650;2023-05-23T11:24:51;19.40;;;11.50;;
47483;SDS011;54076;50.322;18.650;2023-05-23T11:34:59;9.60;;;5.50;;
47483;SDS011;54076;50.322;18.650;2023-05-23T11:45:32;11.30;;;6.90;;
47483;SDS011;54076;50.322;18.650;2023-05-23T11:50:43;12.10;;;7.60;;
47483;SDS011;54076;50.322;18.650;2023-05-23T11:55:53;14.70;;;8.20;;
47483;SDS011;54076;50.322;18.650;2023-05-23T12:06:04;16.40;;;8.80;;
47483;SDS011;54076;50.322;18.650;2023-05-23T12:11:05;16.80;;;9.10;;
47483;SDS011;54076;50.322;18.650;2023-05-23T12:16:06;16.70;;;8.30;;
47483;SDS011;54076;50.322;18.650;2023-05-23T12:21:08;15.70;;;8.30;;
47483;SDS011;54076;50.322;18.650;2023-05-23T12:26:09;17.40;;;7.90;;
47483;SDS011;54076;50.322;18.650;2023-05-23T12:31:11;12.30;;;7.00;;
47483;SDS011;54076;50.322;18.650;2023-05-23T12:36:24;10.60;;;6.30;;
47483;SDS011;54076;50.322;18.650;2023-05-23T12:41:26;11.00;;;6.30;;
47483;SDS011;54076;50.322;18.650;2023-05-23T12:46:27;10.30;;;5.60;;
47483;SDS011;54076;50.322;18.650;2023-05-23T12:51:28;8.40;;;4.70;;
47483;SDS011;54076;50.322;18.650;2023-05-23T12:56:29;8.30;;;4.30;;
47483;SDS011;54076;50.322;18.650;2023-05-23T13:01:30;8.50;;;4.00;;
47483;SDS011;54076;50.322;18.650;2023-05-23T13:06:31;7.20;;;3.60;;
47483;SDS011;54076;50.322;18.650;2023-05-23T13:11:33;7.60;;;4.00;;
47483;SDS011;54076;50.322;18.650;2023-05-23T13:16:34;7.80;;;3.70;;
47483;SDS011;54076;50.322;18.650;2023-05-23T13:21:35;6.40;;;3.20;;
47483;SDS011;54076;50.322;18.650;2023-05-23T13:26:36;7.30;;;3.40;;
47483;SDS011;54076;50.322;18.650;2023-05-23T13:31:38;8.20;;;3.50;;
47483;SDS011;54076;50.322;18.650;2023-05-23T13:36:39;9.10;;;4.40;;
47483;SDS011;54076;50.322;18.650;2023-05-23T13:41:40;9.00;;;4.30;;
47483;SDS011;54076;50.322;18.650;2023-05-23T13:46:42;7.90;;;3.90;;
47483;SDS011;54076;50.322;18.650;2023-05-23T13:51:43;9.20;;;4.40;;
47483;SDS011;54076;50.322;18.650;2023-05-23T13:56:44;7.60;;;4.00;;
47483;SDS011;54076;50.322;18.650;2023-05-23T14:01:46;8.90;;;3.90;;
47483;SDS011;54076;50.322;18.650;2023-05-23T14:06:48;8.40;;;4.20;;
47483;SDS011;54076;50.322;18.650;2023-05-23T14:11:50;8.30;;;5.00;;
47483;SDS011;54076;50.322;18.650;2023-05-23T14:16:51;8.60;;;4.20;;
47483;SDS011;54076;50.322;18.650;2023-05-23T14:21:53;8.70;;;4.80;;
47483;SDS011;54076;50.322;18.650;2023-05-23T14:26:54;8.10;;;4.90;;
47483;SDS011;54076;50.322;18.650;2023-05-23T14:31:55;12.40;;;5.60;;
47483;SDS011;54076;50.322;18.650;2023-05-23T14:36:56;9.50;;;5.00;;
47483;SDS011;54076;50.322;18.650;2023-05-23T14:41:57;11.70;;;5.60;;
47483;SDS011;54076;50.322;18.650;2023-05-23T14:46:58;10.80;;;5.60;;
47483;SDS011;54076;50.322;18.650;2023-05-23T14:51:59;11.30;;;5.80;;
47483;SDS011;54076;50.322;18.650;2023-05-23T14:57:01;11.30;;;5.60;;
47483;SDS011;54076;50.322;18.650;2023-05-23T15:07:51;12.90;;;5.70;;
47483;SDS011;54076;50.322;18.650;2023-05-23T15:12:52;11.40;;;5.50;;
47483;SDS011;54076;50.322;18.650;2023-05-23T15:17:53;11.90;;;5.30;;
47483;SDS011;54076;50.322;18.650;2023-05-23T15:22:53;17.70;;;9.40;;
47483;SDS011;54076;50.322;18.650;2023-05-23T15:27:55;9.10;;;5.30;;
47483;SDS011;54076;50.322;18.650;2023-05-23T15:32:56;7.80;;;4.60;;
47483;SDS011;54076;50.322;18.650;2023-05-23T15:37:57;8.80;;;4.70;;
47483;SDS011;54076;50.322;18.650;2023-05-23T15:42:58;8.90;;;4.80;;
47483;SDS011;54076;50.322;18.650;2023-05-23T15:47:59;8.20;;;4.80;;
47483;SDS011;54076;50.322;18.650;2023-05-23T15:52:59;7.20;;;3.90;;
47483;SDS011;54076;50.322;18.650;2023-05-23T15:58:00;8.10;;;4.30;;
47483;SDS011;54076;50.322;18.650;2023-05-23T16:03:01;7.10;;;3.90;;
47483;SDS011;54076;50.322;18.650;2023-05-23T16:08:03;8.20;;;3.60;;
47483;SDS011;54076;50.322;18.650;2023-05-23T16:13:04;8.00;;;4.00;;
47483;SDS011;54076;50.322;18.650;2023-05-23T16:18:05;7.30;;;4.00;;
47483;SDS011;54076;50.322;18.650;2023-05-23T16:23:06;8.80;;;4.50;;
47483;SDS011;54076;50.322;18.650;2023-05-23T16:28:07;8.30;;;4.70;;
47483;SDS011;54076;50.322;18.650;2023-05-23T16:33:08;8.50;;;5.10;;
47483;SDS011;54076;50.322;18.650;2023-05-23T16:38:09;8.60;;;5.50;;
47483;SDS011;54076;50.322;18.650;2023-05-23T16:43:11;10.30;;;5.70;;
47483;SDS011;54076;50.322;18.650;2023-05-23T16:48:12;8.60;;;5.70;;
47483;SDS011;54076;50.322;18.650;2023-05-23T16:53:13;9.20;;;5.70;;
47483;SDS011;54076;50.322;18.650;2023-05-23T16:58:14;10.20;;;6.40;;
47483;SDS011;54076;50.322;18.650;2023-05-23T17:03:15;10.60;;;6.30;;
47483;SDS011;54076;50.322;18.650;2023-05-23T17:08:16;11.00;;;6.20;;
47483;SDS011;54076;50.322;18.650;2023-05-23T17:13:17;10.70;;;7.40;;
47483;SDS011;54076;50.322;18.650;2023-05-23T17:18:18;11.40;;;6.40;;
47483;SDS011;54076;50.322;18.650;2023-05-23T17:23:20;10.20;;;6.40;;
47483;SDS011;54076;50.322;18.650;2023-05-23T17:28:21;11.30;;;7.00;;
47483;SDS011;54076;50.322;18.650;2023-05-23T17:33:22;10.60;;;6.50;;
47483;SDS011;54076;50.322;18.650;2023-05-23T17:38:23;12.90;;;7.10;;
47483;SDS011;54076;50.322;18.650;2023-05-23T17:43:24;12.70;;;7.80;;
47483;SDS011;54076;50.322;18.650;2023-05-23T17:48:25;11.90;;;8.10;;
47483;SDS011;54076;50.322;18.650;2023-05-23T17:53:26;14.00;;;8.20;;
47483;SDS011;54076;50.322;18.650;2023-05-23T17:58:27;15.70;;;8.10;;
47483;SDS011;54076;50.322;18.650;2023-05-23T18:03:28;15.90;;;8.00;;
47483;SDS011;54076;50.322;18.650;2023-05-23T18:08:30;32.90;;;19.00;;
47483;SDS011;54076;50.322;18.650;2023-05-23T18:13:31;21.30;;;12.70;;
47483;SDS011;54076;50.322;18.650;2023-05-23T18:18:32;11.30;;;7.50;;
47483;SDS011;54076;50.322;18.650;2023-05-23T18:23:33;12.10;;;7.30;;
47483;SDS011;54076;50.322;18.650;2023-05-23T18:28:34;12.50;;;7.60;;
47483;SDS011;54076;50.322;18.650;2023-05-23T18:33:35;14.10;;;7.80;;
47483;SDS011;54076;50.322;18.650;2023-05-23T18:38:36;13.50;;;7.60;;
47483;SDS011;54076;50.322;18.650;2023-05-23T18:43:37;14.70;;;7.90;;
47483;SDS011;54076;50.322;18.650;2023-05-23T18:48:38;12.10;;;7.30;;
47483;SDS011;54076;50.322;18.650;2023-05-23T18:53:40;16.60;;;9.20;;
47483;SDS011;54076;50.322;18.650;2023-05-23T18:58:42;14.00;;;7.80;;
47483;SDS011;54076;50.322;18.650;2023-05-23T19:03:44;13.50;;;7.80;;
47483;SDS011;54076;50.322;18.650;2023-05-23T19:08:45;12.80;;;8.50;;
47483;SDS011;54076;50.322;18.650;2023-05-23T19:13:46;14.50;;;8.40;;
47483;SDS011;54076;50.322;18.650;2023-05-23T19:18:47;16.30;;;8.90;;
47483;SDS011;54076;50.322;18.650;2023-05-23T19:23:48;17.70;;;9.40;;
47483;SDS011;54076;50.322;18.650;2023-05-23T19:28:49;16.80;;;8.80;;
47483;SDS011;54076;50.322;18.650;2023-05-23T19:33:50;16.20;;;9.40;;
47483;SDS011;54076;50.322;18.650;2023-05-23T19:38:51;21.80;;;12.50;;
47483;SDS011;54076;50.322;18.650;2023-05-23T19:43:53;16.70;;;9.00;;
47483;SDS011;54076;50.322;18.650;2023-05-23T19:48:54;15.00;;;9.10;;
47483;SDS011;54076;50.322;18.650;2023-05-23T19:53:57;20.10;;;10.40;;
47483;SDS011;54076;50.322;18.650;2023-05-23T19:58:58;15.90;;;8.30;;
47483;SDS011;54076;50.322;18.650;2023-05-23T20:03:59;13.00;;;8.30;;
47483;SDS011;54076;50.322;18.650;2023-05-23T20:09:00;16.20;;;7.90;;
47483;SDS011;54076;50.322;18.650;2023-05-23T20:14:01;12.80;;;8.00;;
47483;SDS011;54076;50.322;18.650;2023-05-23T20:19:03;14.30;;;8.30;;
47483;SDS011;54076;50.322;18.650;2023-05-23T20:24:04;12.20;;;7.50;;
47483;SDS011;54076;50.322;18.650;2023-05-23T20:29:06;13.00;;;7.80;;
47483;SDS011;54076;50.322;18.650;2023-05-23T20:34:07;16.10;;;7.50;;
47483;SDS011;54076;50.322;18.650;2023-05-23T20:39:08;11.30;;;6.90;;
47483;SDS011;54076;50.322;18.650;2023-05-23T20:44:10;11.40;;;6.70;;
47483;SDS011;54076;50.322;18.650;2023-05-23T20:49:13;15.00;;;8.20;;
47483;SDS011;54076;50.322;18.650;2023-05-23T20:54:15;13.20;;;7.50;;
47483;SDS011;54076;50.322;18.650;2023-05-23T20:59:16;15.20;;;7.10;;
47483;SDS011;54076;50.322;18.650;2023-05-23T21:04:17;14.00;;;8.60;;
47483;SDS011;54076;50.322;18.650;2023-05-23T21:09:18;12.10;;;7.60;;
47483;SDS011;54076;50.322;18.650;2023-05-23T21:14:19;21.30;;;11.50;;
47483;SDS011;54076;50.322;18.650;2023-05-23T21:19:20;18.40;;;8.80;;
47483;SDS011;54076;50.322;18.650;2023-05-23T21:24:21;16.20;;;8.30;;
47483;SDS011;54076;50.322;18.650;2023-05-23T21:29:22;13.60;;;7.70;;
47483;SDS011;54076;50.322;18.650;2023-05-23T21:34:23;14.40;;;8.40;;
47483;SDS011;54076;50.322;18.650;2023-05-23T21:39:24;12.30;;;7.80;;
47483;SDS011;54076;50.322;18.650;2023-05-23T21:44:25;16.30;;;8.80;;
47483;SDS011;54076;50.322;18.650;2023-05-23T21:49:26;14.50;;;8.50;;
47483;SDS011;54076;50.322;18.650;2023-05-23T21:54:32;12.70;;;8.30;;
47483;SDS011;54076;50.322;18.650;2023-05-23T21:59:33;18.90;;;8.40;;
47483;SDS011;54076;50.322;18.650;2023-05-23T22:04:34;13.70;;;8.20;;
47483;SDS011;54076;50.322;18.650;2023-05-23T22:09:35;19.90;;;7.90;;
47483;SDS011;54076;50.322;18.650;2023-05-23T22:14:36;14.10;;;8.10;;
47483;SDS011;54076;50.322;18.650;2023-05-23T22:19:37;14.00;;;8.10;;
47483;SDS011;54076;50.322;18.650;2023-05-23T22:24:38;12.20;;;7.50;;
47483;SDS011;54076;50.322;18.650;2023-05-23T22:29:39;15.10;;;8.40;;
47483;SDS011;54076;50.322;18.650;2023-05-23T22:34:40;14.30;;;8.80;;
47483;SDS011;54076;50.322;18.650;2023-05-23T22:39:41;14.90;;;8.50;;
47483;SDS011;54076;50.322;18.650;2023-05-23T22:44:42;15.90;;;9.00;;
47483;SDS011;54076;50.322;18.650;2023-05-23T22:49:43;15.20;;;9.60;;
47483;SDS011;54076;50.322;18.650;2023-05-23T22:54:45;15.80;;;9.40;;
47483;SDS011;54076;50.322;18.650;2023-05-23T22:59:46;23.30;;;9.70;;
47483;SDS011;54076;50.322;18.650;2023-05-23T23:04:47;16.80;;;9.40;;
47483;SDS011;54076;50.322;18.650;2023-05-23T23:09:48;17.40;;;9.00;;
47483;SDS011;54076;50.322;18.650;2023-05-23T23:14:49;16.30;;;9.60;;
47483;SDS011;54076;50.322;18.650;2023-05-23T23:19:50;15.40;;;9.70;;
47483;SDS011;54076;50.322;18.650;2023-05-23T23:24:51;19.00;;;10.50;;
47483;SDS011;54076;50.322;18.650;2023-05-23T23:29:52;17.80;;;9.80;;
47483;SDS011;54076;50.322;18.650;2023-05-23T23:34:53;18.60;;;10.80;;
47483;SDS011;54076;50.322;18.650;2023-05-23T23:39:55;20.00;;;10.30;;
47483;SDS011;54076;50.322;18.650;2023-05-23T23:57:28;17.20;;;10.40;;
